createdAt,value
2023-04-29T00:01:39.857Z,14.75
2023-04-29T00:04:07.459Z,14.82
2023-04-29T00:06:34.974Z,14.74
2023-04-29T00:09:02.323Z,14.81
2023-04-29T00:11:29.731Z,14.77
2023-04-29T00:13:57.066Z,14.82
2023-04-29T00:16:24.442Z,14.95
2023-04-29T00:18:51.864Z,14.99
2023-04-29T00:21:19.438Z,15.11
2023-04-29T00:23:47.012Z,15.06
2023-04-29T00:26:14.351Z,14.96
2023-04-29T00:28:46.253Z,14.89
2023-04-29T00:31:14.839Z,14.81
2023-04-29T00:33:42.636Z,14.75
2023-04-29T00:36:10.171Z,14.74
2023-04-29T00:38:37.757Z,14.73
2023-04-29T00:41:05.198Z,14.85
2023-04-29T00:43:32.671Z,14.90
2023-04-29T00:46:00.013Z,14.66
2023-04-29T00:48:27.603Z,14.63
2023-04-29T00:50:54.958Z,14.67
2023-04-29T00:53:23.326Z,14.70
2023-04-29T00:55:51.843Z,14.61
2023-04-29T00:58:20.112Z,14.45
2023-04-29T01:00:48.087Z,14.43
2023-04-29T01:03:19.567Z,14.57
2023-04-29T01:05:58.068Z,14.67
2023-04-29T01:08:35.678Z,14.55
2023-04-29T01:11:11.061Z,14.66
2023-04-29T01:14:04.954Z,14.62
2023-04-29T01:16:51.818Z,14.70
2023-04-29T01:20:00.579Z,14.72
2023-04-29T01:22:27.991Z,14.73
2023-04-29T01:24:55.369Z,14.69
2023-04-29T01:27:31.833Z,14.68
2023-04-29T01:30:34.481Z,14.77
2023-04-29T01:33:17.863Z,14.54
2023-04-29T01:36:14.018Z,14.44
2023-04-29T01:38:58.161Z,14.54
2023-04-29T01:41:43.178Z,14.48
2023-04-29T01:44:18.662Z,14.44
2023-04-29T01:46:55.038Z,14.39
2023-04-29T01:49:28.523Z,14.43
2023-04-29T01:51:56.417Z,14.32
2023-04-29T01:54:24.105Z,14.44
2023-04-29T01:56:52.244Z,14.49
2023-04-29T01:59:27.451Z,14.38
2023-04-29T02:02:15.087Z,14.40
2023-04-29T02:04:52.175Z,14.25
2023-04-29T02:07:19.714Z,14.24
2023-04-29T02:09:48.250Z,14.39
2023-04-29T02:12:15.659Z,14.39
2023-04-29T02:14:43.028Z,14.33
2023-04-29T02:17:10.480Z,14.28
2023-04-29T02:19:37.941Z,14.41
2023-04-29T02:22:05.565Z,14.45
2023-04-29T02:24:32.929Z,14.48
2023-04-29T02:27:00.351Z,14.31
2023-04-29T02:29:31.015Z,14.32
2023-04-29T02:31:59.283Z,14.24
2023-04-29T02:34:26.797Z,14.28
2023-04-29T02:36:57.037Z,14.41
2023-04-29T02:39:24.852Z,14.49
2023-04-29T02:41:56.344Z,14.55
2023-04-29T02:44:24.556Z,14.56
2023-04-29T02:46:51.914Z,14.58
2023-04-29T02:49:19.316Z,14.58
2023-04-29T02:51:46.865Z,14.52
2023-04-29T02:54:14.312Z,14.47
2023-04-29T02:56:41.740Z,14.41
2023-04-29T02:59:09.749Z,14.36
2023-04-29T03:01:39.959Z,14.30
2023-04-29T03:04:07.755Z,14.43
2023-04-29T03:06:35.777Z,14.35
2023-04-29T03:09:03.194Z,14.49
2023-04-29T03:11:30.688Z,14.56
2023-04-29T03:14:00.113Z,14.62
2023-04-29T03:16:28.781Z,14.50
2023-04-29T03:18:56.152Z,14.55
2023-04-29T03:21:26.341Z,14.56
2023-04-29T03:23:55.475Z,14.55
2023-04-29T03:26:29.029Z,14.60
2023-04-29T03:28:58.549Z,14.63
2023-04-29T03:31:27.532Z,14.60
2023-04-29T03:33:55.010Z,14.50
2023-04-29T03:36:23.528Z,14.54
2023-04-29T03:39:06.312Z,14.65
2023-04-29T03:41:34.038Z,14.64
2023-04-29T03:44:01.481Z,14.62
2023-04-29T03:46:30.345Z,14.57
2023-04-29T03:48:58.138Z,14.46
2023-04-29T03:51:26.377Z,14.52
2023-04-29T03:54:01.759Z,14.43
2023-04-29T03:56:29.304Z,14.47
2023-04-29T03:58:56.610Z,14.40
2023-04-29T04:01:26.564Z,14.42
2023-04-29T04:03:54.297Z,14.39
2023-04-29T04:06:22.146Z,14.46
2023-04-29T04:08:49.956Z,14.52
2023-04-29T04:11:21.186Z,14.56
2023-04-29T04:13:53.649Z,14.55
2023-04-29T04:16:21.612Z,14.46
2023-04-29T04:18:49.227Z,14.44
2023-04-29T04:21:16.803Z,14.48
2023-04-29T04:23:48.420Z,14.51
2023-04-29T04:26:21.124Z,14.46
2023-04-29T04:28:54.509Z,14.50
2023-04-29T04:31:30.098Z,14.36
2023-04-29T04:33:59.796Z,14.39
2023-04-29T04:36:28.519Z,14.26
2023-04-29T04:38:56.587Z,14.34
2023-04-29T04:41:24.267Z,14.42
2023-04-29T04:43:53.370Z,14.34
2023-04-29T04:46:33.458Z,14.40
2023-04-29T04:49:09.768Z,14.36
2023-04-29T04:51:45.830Z,14.29
2023-04-29T04:54:13.786Z,14.23
2023-04-29T04:56:44.001Z,14.20
2023-04-29T04:59:11.482Z,14.25
2023-04-29T05:01:41.077Z,14.18
2023-04-29T05:04:08.560Z,14.14
2023-04-29T05:06:36.352Z,13.98
2023-04-29T05:09:03.855Z,14.11
2023-04-29T05:11:32.320Z,14.13
2023-04-29T05:14:09.011Z,14.24
2023-04-29T05:16:36.681Z,14.31
2023-04-29T05:19:04.180Z,14.27
2023-04-29T05:21:35.844Z,14.21
2023-04-29T05:24:04.096Z,14.14
2023-04-29T05:26:31.454Z,14.16
2023-04-29T05:29:01.530Z,14.24
2023-04-29T05:31:32.488Z,14.29
2023-04-29T05:34:03.270Z,14.33
2023-04-29T05:36:31.858Z,14.33
2023-04-29T05:38:59.326Z,14.29
2023-04-29T05:41:26.895Z,14.25
2023-04-29T05:44:03.329Z,14.34
2023-04-29T05:46:32.552Z,14.40
2023-04-29T05:49:00.037Z,14.29
2023-04-29T05:51:28.358Z,14.35
2023-04-29T05:53:55.925Z,14.45
2023-04-29T05:56:23.516Z,14.58
2023-04-29T05:58:50.987Z,14.69
2023-04-29T06:01:18.738Z,14.67
2023-04-29T06:03:46.887Z,14.64
2023-04-29T06:06:54.189Z,14.62
2023-04-29T06:09:33.337Z,14.58
2023-04-29T06:12:03.568Z,14.59
2023-04-29T06:14:31.050Z,14.64
2023-04-29T06:16:59.333Z,14.71
2023-04-29T06:19:27.075Z,14.74
2023-04-29T06:21:54.455Z,14.82
2023-04-29T06:24:22.014Z,14.92
2023-04-29T06:26:49.395Z,14.90
2023-04-29T06:29:17.045Z,15.07
2023-04-29T06:31:47.517Z,15.01
2023-04-29T06:34:15.170Z,15.03
2023-04-29T06:37:05.834Z,15.18
2023-04-29T06:40:08.882Z,15.18
2023-04-29T06:43:08.744Z,15.38
2023-04-29T06:45:41.731Z,15.46
2023-04-29T06:48:18.493Z,15.46
2023-04-29T06:50:55.836Z,15.41
2023-04-29T06:53:24.532Z,15.11
2023-04-29T06:55:51.928Z,15.04
2023-04-29T06:58:23.388Z,15.16
2023-04-29T07:00:51.605Z,15.25
2023-04-29T07:03:19.550Z,15.37
2023-04-29T07:05:47.088Z,15.45
2023-04-29T07:08:14.736Z,15.65
2023-04-29T07:10:42.108Z,15.77
2023-04-29T07:13:09.650Z,15.71
2023-04-29T07:15:37.565Z,15.84
2023-04-29T07:18:05.608Z,15.95
2023-04-29T07:20:33.125Z,16.00
2023-04-29T07:23:00.509Z,16.06
2023-04-29T07:25:29.416Z,16.15
2023-04-29T07:27:57.159Z,16.24
2023-04-29T07:30:25.964Z,16.33
2023-04-29T07:32:53.375Z,16.29
2023-04-29T07:35:20.963Z,16.41
2023-04-29T07:37:48.363Z,16.42
2023-04-29T07:40:15.759Z,16.48
2023-04-29T07:42:43.995Z,16.58
2023-04-29T07:45:15.081Z,16.51
2023-04-29T07:47:42.500Z,16.66
2023-04-29T07:50:10.496Z,16.69
2023-04-29T07:52:40.875Z,16.66
2023-04-29T07:55:09.679Z,16.78
2023-04-29T07:57:37.123Z,16.89
2023-04-29T08:00:05.153Z,16.94
2023-04-29T08:02:42.779Z,16.92
2023-04-29T08:05:15.976Z,16.94
2023-04-29T08:07:43.506Z,16.79
2023-04-29T08:10:11.268Z,16.90
2023-04-29T08:12:38.796Z,16.89
2023-04-29T08:15:09.808Z,16.89
2023-04-29T08:17:37.544Z,16.92
2023-04-29T08:20:05.529Z,17.16
2023-04-29T08:22:32.890Z,17.11
2023-04-29T08:25:00.470Z,16.94
2023-04-29T08:27:27.848Z,17.16
2023-04-29T08:29:56.164Z,17.29
2023-04-29T08:32:23.542Z,16.99
2023-04-29T08:34:51.441Z,17.18
2023-04-29T08:37:20.685Z,17.22
2023-04-29T08:39:49.015Z,17.49
2023-04-29T08:42:21.157Z,17.35
2023-04-29T08:44:49.662Z,17.49
2023-04-29T08:47:17.862Z,17.63
2023-04-29T08:49:45.398Z,17.69
2023-04-29T08:52:15.838Z,17.88
2023-04-29T08:54:43.201Z,18.20
2023-04-29T08:57:12.235Z,18.53
2023-04-29T08:59:39.659Z,18.50
2023-04-29T09:02:11.866Z,18.71
2023-04-29T09:04:51.967Z,19.18
2023-04-29T09:07:19.628Z,19.52
2023-04-29T09:09:49.344Z,19.46
2023-04-29T09:12:16.686Z,19.66
2023-04-29T09:14:44.455Z,19.69
2023-04-29T09:17:11.802Z,19.40
2023-04-29T09:19:39.292Z,19.40
2023-04-29T09:22:09.336Z,18.66
2023-04-29T09:24:38.063Z,18.56
2023-04-29T09:27:05.617Z,18.99
2023-04-29T09:29:34.600Z,19.45
2023-04-29T09:32:19.549Z,19.94
2023-04-29T09:34:47.016Z,19.92
2023-04-29T09:37:28.115Z,19.83
2023-04-29T09:39:55.583Z,20.38
2023-04-29T09:42:22.977Z,20.45
2023-04-29T09:44:50.372Z,20.81
2023-04-29T09:47:17.911Z,20.60
2023-04-29T09:49:46.116Z,20.82
2023-04-29T09:52:16.389Z,20.84
2023-04-29T09:54:44.835Z,20.66
2023-04-29T09:57:15.727Z,20.10
2023-04-29T09:59:43.969Z,20.31
2023-04-29T10:02:17.733Z,19.98
2023-04-29T10:04:46.956Z,20.13
2023-04-29T10:07:16.808Z,20.14
2023-04-29T10:09:48.209Z,20.02
2023-04-29T10:12:20.701Z,20.32
2023-04-29T10:14:55.677Z,20.66
2023-04-29T10:17:45.123Z,21.03
2023-04-29T10:20:26.513Z,21.35
2023-04-29T10:22:56.624Z,21.45
2023-04-29T10:25:25.269Z,22.03
2023-04-29T10:27:53.767Z,22.02
2023-04-29T10:30:22.593Z,21.94
2023-04-29T10:32:52.491Z,22.40
2023-04-29T10:35:23.444Z,21.70
2023-04-29T10:37:53.135Z,22.17
2023-04-29T10:40:26.701Z,22.72
2023-04-29T10:42:55.193Z,22.69
2023-04-29T10:45:35.105Z,22.35
2023-04-29T10:48:06.161Z,22.11
2023-04-29T10:50:49.764Z,22.55
2023-04-29T10:53:20.615Z,22.74
2023-04-29T10:55:57.649Z,22.73
2023-04-29T10:58:45.455Z,22.91
2023-04-29T11:01:17.408Z,22.86
2023-04-29T11:04:01.692Z,23.32
2023-04-29T11:06:39.758Z,23.13
2023-04-29T11:09:16.128Z,22.77
2023-04-29T11:11:53.988Z,22.61
2023-04-29T11:14:27.025Z,22.72
2023-04-29T11:17:01.410Z,21.83
2023-04-29T11:19:36.738Z,21.65
2023-04-29T11:22:14.327Z,22.20
2023-04-29T11:25:04.636Z,22.25
2023-04-29T11:27:36.654Z,22.46
2023-04-29T11:30:06.559Z,22.43
2023-04-29T11:32:42.999Z,22.66
2023-04-29T11:35:18.395Z,22.87
2023-04-29T11:37:47.182Z,22.99
2023-04-29T11:40:15.221Z,22.64
2023-04-29T11:42:46.698Z,23.02
2023-04-29T11:45:15.285Z,22.81
2023-04-29T11:47:45.734Z,22.94
2023-04-29T11:50:16.747Z,23.02
2023-04-29T11:52:47.038Z,22.69
2023-04-29T11:55:14.804Z,22.67
2023-04-29T11:57:42.368Z,23.02
2023-04-29T12:00:14.193Z,22.77
2023-04-29T12:02:45.390Z,23.32
2023-04-29T12:05:13.703Z,23.36
2023-04-29T12:07:41.465Z,23.35
2023-04-29T12:10:10.875Z,22.94
2023-04-29T12:12:41.055Z,22.84
2023-04-29T12:15:10.209Z,23.24
2023-04-29T12:17:38.808Z,23.44
2023-04-29T12:20:09.450Z,23.04
2023-04-29T12:22:36.836Z,23.09
2023-04-29T12:25:07.924Z,23.19
2023-04-29T12:27:36.881Z,23.03
2023-04-29T12:30:09.753Z,22.87
2023-04-29T12:32:38.636Z,22.69
2023-04-29T12:35:07.393Z,22.85
2023-04-29T12:37:35.465Z,22.78
2023-04-29T12:40:03.714Z,22.42
2023-04-29T12:42:36.637Z,22.64
2023-04-29T12:45:06.670Z,22.65
2023-04-29T12:47:37.499Z,22.63
2023-04-29T12:50:07.259Z,22.68
2023-04-29T12:52:36.639Z,22.43
2023-04-29T12:55:05.032Z,22.70
2023-04-29T12:57:32.421Z,22.36
2023-04-29T12:59:59.876Z,22.20
2023-04-29T13:02:28.363Z,22.57
2023-04-29T13:04:56.255Z,22.28
2023-04-29T13:07:23.901Z,22.63
2023-04-29T13:09:51.258Z,22.65
2023-04-29T13:12:18.587Z,22.42
2023-04-29T13:14:46.218Z,22.53
2023-04-29T13:17:13.986Z,22.24
2023-04-29T13:19:51.059Z,22.08
2023-04-29T13:22:20.183Z,21.87
2023-04-29T13:24:47.767Z,21.97
2023-04-29T13:27:15.101Z,22.05
2023-04-29T13:29:42.609Z,21.91
2023-04-29T13:32:12.813Z,22.03
2023-04-29T13:34:43.349Z,22.31
2023-04-29T13:37:11.743Z,22.29
2023-04-29T13:39:39.764Z,22.16
2023-04-29T13:42:08.984Z,22.24
2023-04-29T13:44:49.787Z,22.60
2023-04-29T13:47:25.522Z,22.46
2023-04-29T13:50:22.573Z,22.85
2023-04-29T14:00:37.085Z,22.23
2023-04-29T14:03:03.313Z,22.26
2023-04-29T14:05:31.161Z,22.06
2023-04-29T14:07:58.587Z,21.83
2023-04-29T14:10:26.126Z,22.07
2023-04-29T14:12:53.452Z,21.99
2023-04-29T14:15:20.954Z,21.71
2023-04-29T14:17:50.235Z,22.13
2023-04-29T14:20:20.812Z,21.98
2023-04-29T14:22:48.088Z,21.95
2023-04-29T14:25:15.543Z,21.89
2023-04-29T14:27:42.878Z,22.06
2023-04-29T14:30:10.813Z,22.00
2023-04-29T14:32:38.164Z,21.86
2023-04-29T14:35:06.377Z,22.03
2023-04-29T14:37:33.766Z,22.02
2023-04-29T14:40:01.221Z,21.86
2023-04-29T14:42:28.535Z,21.75
2023-04-29T14:44:58.788Z,21.67
2023-04-29T14:47:26.338Z,21.68
2023-04-29T14:49:53.729Z,21.52
2023-04-29T14:52:24.093Z,21.60
2023-04-29T14:54:51.599Z,21.49
2023-04-29T14:57:19.024Z,21.66
2023-04-29T14:59:46.928Z,21.50
2023-04-29T15:02:14.305Z,21.26
2023-04-29T15:04:45.753Z,21.45
2023-04-29T15:07:13.871Z,21.27
2023-04-29T15:09:41.994Z,21.16
2023-04-29T15:12:09.656Z,20.94
2023-04-29T15:14:37.705Z,20.78
2023-04-29T15:17:05.119Z,20.72
2023-04-29T15:19:32.533Z,20.78
2023-04-29T15:21:59.846Z,20.82
2023-04-29T15:24:27.252Z,20.72
2023-04-29T15:26:54.636Z,20.73
2023-04-29T15:29:22.190Z,20.73
2023-04-29T15:31:49.702Z,20.75
2023-04-29T15:34:17.109Z,20.66
2023-04-29T15:36:44.489Z,20.69
2023-04-29T15:39:12.267Z,20.71
2023-04-29T15:41:39.638Z,20.86
2023-04-29T15:44:07.073Z,20.94
2023-04-29T15:46:34.412Z,20.89
2023-04-29T15:49:02.479Z,20.81
2023-04-29T15:51:29.827Z,20.75
2023-04-29T15:53:57.251Z,20.73
2023-04-29T15:56:25.091Z,20.86
2023-04-29T15:58:53.076Z,20.70
2023-04-29T16:01:20.531Z,20.73
2023-04-29T16:03:48.102Z,20.65
2023-04-29T16:06:16.854Z,20.65
2023-04-29T16:08:44.292Z,20.73
2023-04-29T16:11:12.082Z,20.81
2023-04-29T16:13:39.448Z,20.66
2023-04-29T16:16:07.059Z,20.61
2023-04-29T16:18:34.391Z,20.63
2023-04-29T16:21:02.805Z,20.48
2023-04-29T16:23:30.259Z,20.42
2023-04-29T16:25:57.707Z,20.50
2023-04-29T16:28:25.094Z,20.47
2023-04-29T16:30:52.363Z,20.60
2023-04-29T16:33:19.852Z,20.54
2023-04-29T16:35:47.680Z,20.42
2023-04-29T16:38:15.125Z,20.14
2023-04-29T16:40:42.456Z,20.10
2023-04-29T16:43:12.252Z,20.15
2023-04-29T16:45:39.797Z,20.18
2023-04-29T16:48:08.311Z,20.21
2023-04-29T16:50:37.616Z,20.23
2023-04-29T16:53:04.999Z,20.21
2023-04-29T16:55:32.493Z,20.12
2023-04-29T16:57:59.909Z,20.09
2023-04-29T17:00:30.429Z,20.21
2023-04-29T17:02:58.580Z,20.13
2023-04-29T17:05:27.149Z,20.04
2023-04-29T17:07:54.978Z,20.01
2023-04-29T17:10:22.402Z,20.02
2023-04-29T17:12:49.812Z,20.03
2023-04-29T17:15:17.242Z,19.95
2023-04-29T17:17:46.703Z,20.04
2023-04-29T17:20:14.200Z,20.07
2023-04-29T17:22:44.864Z,20.14
2023-04-29T17:25:13.788Z,20.02
2023-04-29T17:27:44.429Z,19.93
2023-04-29T17:30:14.325Z,20.13
2023-04-29T17:32:44.274Z,20.19
2023-04-29T17:35:11.787Z,19.96
2023-04-29T17:37:39.194Z,19.83
2023-04-29T17:40:09.917Z,19.75
2023-04-29T17:42:37.436Z,19.81
2023-04-29T17:45:05.520Z,19.72
2023-04-29T17:47:33.819Z,19.55
2023-04-29T17:50:02.630Z,19.55
2023-04-29T17:52:32.723Z,19.36
2023-04-29T17:55:00.131Z,19.41
2023-04-29T17:57:28.729Z,19.40
2023-04-29T17:59:56.827Z,19.28
2023-04-29T18:02:27.635Z,19.15
2023-04-29T18:04:55.858Z,19.03
2023-04-29T18:07:23.260Z,18.92
2023-04-29T18:09:51.085Z,18.80
2023-04-29T18:12:18.576Z,18.79
2023-04-29T18:14:48.792Z,18.69
2023-04-29T18:17:16.266Z,18.62
2023-04-29T18:19:46.687Z,18.60
2023-04-29T18:22:14.272Z,18.55
2023-04-29T18:24:41.593Z,18.42
2023-04-29T18:27:09.026Z,18.34
2023-04-29T18:29:39.123Z,18.30
2023-04-29T18:32:07.973Z,18.30
2023-04-29T18:34:35.807Z,18.20
2023-04-29T18:37:03.163Z,18.18
2023-04-29T18:39:30.630Z,18.16
2023-04-29T18:41:58.144Z,18.13
2023-04-29T18:44:26.331Z,18.10
2023-04-29T18:46:55.283Z,18.07
2023-04-29T18:49:22.652Z,18.03
2023-04-29T18:51:52.879Z,17.99
2023-04-29T18:54:20.249Z,17.98
2023-04-29T18:56:50.655Z,17.90
2023-04-29T18:59:19.830Z,17.89
2023-04-29T19:01:48.798Z,17.87
2023-04-29T19:04:19.761Z,17.82
2023-04-29T19:06:47.219Z,17.75
2023-04-29T19:09:14.620Z,17.75
2023-04-29T19:11:42.044Z,17.71
2023-04-29T19:14:09.421Z,17.70
2023-04-29T19:16:37.464Z,17.66
2023-04-29T19:19:05.343Z,17.68
2023-04-29T19:21:33.405Z,17.69
2023-04-29T19:24:00.873Z,17.79
2023-04-29T19:26:28.969Z,17.79
2023-04-29T19:28:56.314Z,17.79
2023-04-29T19:31:23.750Z,17.74
2023-04-29T19:33:52.415Z,17.71
2023-04-29T19:36:22.438Z,17.59
2023-04-29T19:38:49.936Z,17.72
2023-04-29T19:41:17.945Z,17.71
2023-04-29T19:43:45.251Z,17.62
2023-04-29T19:46:13.387Z,17.56
2023-04-29T19:48:41.087Z,17.52
2023-04-29T19:51:09.782Z,17.47
2023-04-29T19:53:37.336Z,17.57
2023-04-29T19:56:05.326Z,17.48
2023-04-29T19:58:33.086Z,17.49
2023-04-29T20:01:00.637Z,17.42
2023-04-29T20:03:28.284Z,17.40
2023-04-29T20:05:55.696Z,17.37
2023-04-29T20:08:23.107Z,17.33
2023-04-29T20:10:50.469Z,17.30
2023-04-29T20:13:17.804Z,17.28
2023-04-29T20:15:45.223Z,17.18
2023-04-29T20:18:13.750Z,17.09
2023-04-29T20:20:41.160Z,17.08
2023-04-29T20:23:08.473Z,17.14
2023-04-29T20:25:35.910Z,17.18
2023-04-29T20:28:03.290Z,17.20
2023-04-29T20:30:30.862Z,17.25
2023-04-29T20:32:58.204Z,17.19
2023-04-29T20:35:27.031Z,17.09
2023-04-29T20:37:54.617Z,17.00
2023-04-29T20:40:22.365Z,17.07
2023-04-29T20:42:49.782Z,17.10
2023-04-29T20:45:18.382Z,17.01
2023-04-29T20:47:45.906Z,17.04
2023-04-29T20:50:13.675Z,17.01
2023-04-29T20:52:41.630Z,17.04
2023-04-29T20:55:09.406Z,17.06
2023-04-29T20:57:37.384Z,17.02
2023-04-29T21:00:05.670Z,16.93
2023-04-29T21:02:33.831Z,16.75
2023-04-29T21:05:01.386Z,16.71
2023-04-29T21:07:29.504Z,16.74
2023-04-29T21:09:58.835Z,16.77
2023-04-29T21:12:26.325Z,16.73
2023-04-29T21:14:53.931Z,16.75
2023-04-29T21:17:21.329Z,16.73
2023-04-29T21:19:48.816Z,16.70
2023-04-29T21:22:16.106Z,16.70
2023-04-29T21:24:43.485Z,16.72
2023-04-29T21:27:10.865Z,16.53
2023-04-29T21:29:41.095Z,16.53
2023-04-29T21:32:08.879Z,16.47
2023-04-29T21:34:36.248Z,16.42
2023-04-29T21:37:04.681Z,16.37
2023-04-29T21:39:32.326Z,16.30
2023-04-29T21:42:02.665Z,16.25
2023-04-29T21:44:30.556Z,16.25
2023-04-29T21:46:59.842Z,16.24
2023-04-29T21:49:30.708Z,16.17
2023-04-29T21:51:58.035Z,16.33
2023-04-29T21:54:25.429Z,16.34
2023-04-29T21:56:52.760Z,16.32
2023-04-29T21:59:20.170Z,16.39
2023-04-29T22:01:47.641Z,16.27
2023-04-29T22:04:16.740Z,16.24
2023-04-29T22:06:44.196Z,16.28
2023-04-29T22:09:11.608Z,16.35
2023-04-29T22:11:39.180Z,16.42
2023-04-29T22:14:06.696Z,16.38
2023-04-29T22:16:35.926Z,16.40
2023-04-29T22:19:04.218Z,16.28
2023-04-29T22:21:31.756Z,16.23
2023-04-29T22:23:59.203Z,16.17
2023-04-29T22:26:26.862Z,16.17
2023-04-29T22:28:54.988Z,16.14
2023-04-29T22:31:22.367Z,16.10
2023-04-29T22:33:49.755Z,16.11
2023-04-29T22:36:17.119Z,15.99
2023-04-29T22:38:47.582Z,15.90
2023-04-29T22:41:15.045Z,15.85
2023-04-29T22:43:42.405Z,15.89
2023-04-29T22:46:09.787Z,15.96
2023-04-29T22:48:37.229Z,16.00
2023-04-29T22:51:04.749Z,15.97
2023-04-29T22:53:35.036Z,15.93
2023-04-29T22:56:03.182Z,15.95
2023-04-29T22:58:31.598Z,15.85
2023-04-29T23:01:00.420Z,15.87
2023-04-29T23:03:28.059Z,15.79
2023-04-29T23:05:59.448Z,15.79
2023-04-29T23:08:27.582Z,15.80
2023-04-29T23:10:55.010Z,15.75
2023-04-29T23:13:22.428Z,15.83
2023-04-29T23:15:49.806Z,15.69
2023-04-29T23:18:17.183Z,15.63
2023-04-29T23:20:47.955Z,15.62
2023-04-29T23:23:15.454Z,15.58
2023-04-29T23:25:45.219Z,15.54
2023-04-29T23:28:12.674Z,15.65
2023-04-29T23:30:40.227Z,15.51
2023-04-29T23:33:07.903Z,15.51
2023-04-29T23:35:35.297Z,15.47
2023-04-29T23:38:02.699Z,15.58
2023-04-29T23:40:31.169Z,15.49
2023-04-29T23:42:59.191Z,15.54
2023-04-29T23:45:26.568Z,15.43
2023-04-29T23:47:54.038Z,15.50
2023-04-29T23:50:21.378Z,15.40
2023-04-29T23:52:48.768Z,15.51
2023-04-29T23:55:16.221Z,15.56
2023-04-29T23:57:43.659Z,15.58
